createdAt,value
2023-02-03T00:00:42.343Z,4.89
2023-02-03T00:03:08.914Z,4.91
2023-02-03T00:05:36.546Z,4.88
2023-02-03T00:08:04.807Z,4.85
2023-02-03T00:10:31.350Z,4.85
2023-02-03T00:12:58.071Z,4.80
2023-02-03T00:15:24.468Z,4.82
2023-02-03T00:17:50.901Z,4.79
2023-02-03T00:20:17.453Z,4.81
2023-02-03T00:22:43.864Z,4.82
2023-02-03T00:25:10.377Z,4.83
2023-02-03T00:27:36.916Z,4.85
2023-02-03T00:30:04.134Z,4.83
2023-02-03T00:32:30.793Z,4.82
2023-02-03T00:35:00.108Z,4.84
2023-02-03T00:37:26.543Z,4.84
2023-02-03T00:39:53.165Z,4.80
2023-02-03T00:42:19.619Z,4.78
2023-02-03T00:44:46.002Z,4.79
2023-02-03T00:47:12.365Z,4.79
2023-02-03T00:49:38.848Z,4.83
2023-02-03T00:52:05.523Z,4.87
2023-02-03T00:54:33.655Z,4.88
2023-02-03T00:57:00.191Z,4.90
2023-02-03T00:59:26.629Z,4.89
2023-02-03T01:01:53.117Z,4.89
2023-02-03T01:04:19.867Z,4.86
2023-02-03T01:06:47.675Z,4.82
2023-02-03T01:09:14.066Z,4.83
2023-02-03T01:11:40.723Z,4.86
2023-02-03T01:14:07.423Z,4.80
2023-02-03T01:16:33.847Z,4.82
2023-02-03T01:19:00.406Z,4.83
2023-02-03T01:21:26.926Z,4.82
2023-02-03T01:23:54.275Z,4.80
2023-02-03T01:26:22.565Z,4.80
2023-02-03T01:28:53.983Z,4.77
2023-02-03T01:31:29.991Z,4.76
2023-02-03T01:33:57.227Z,4.77
2023-02-03T01:36:26.069Z,4.74
2023-02-03T01:38:53.742Z,4.79
2023-02-03T01:41:22.823Z,4.79
2023-02-03T01:43:51.980Z,4.80
2023-02-03T01:46:35.907Z,4.79
2023-02-03T01:49:13.312Z,4.79
2023-02-03T01:51:42.073Z,4.79
2023-02-03T01:54:16.836Z,4.82
2023-02-03T01:56:48.074Z,4.84
2023-02-03T01:59:17.725Z,4.87
2023-02-03T02:01:44.792Z,4.86
2023-02-03T02:04:11.715Z,4.86
2023-02-03T02:06:38.487Z,4.84
2023-02-03T02:09:05.298Z,4.84
2023-02-03T02:11:31.794Z,4.81
2023-02-03T02:14:02.458Z,4.78
2023-02-03T02:16:41.462Z,4.75
2023-02-03T02:19:31.189Z,4.75
2023-02-03T02:22:31.469Z,4.74
2023-02-03T02:25:52.052Z,4.72
2023-02-03T02:28:40.232Z,4.74
2023-02-03T02:31:41.243Z,4.73
2023-02-03T02:34:15.043Z,4.75
2023-02-03T02:37:04.711Z,4.76
2023-02-03T02:39:51.173Z,4.76
2023-02-03T02:42:22.720Z,4.81
2023-02-03T02:44:58.470Z,4.79
2023-02-03T02:47:25.288Z,4.77
2023-02-03T02:50:01.245Z,4.75
2023-02-03T02:52:31.553Z,4.84
2023-02-03T02:55:02.467Z,4.83
2023-02-03T02:57:29.417Z,4.81
2023-02-03T02:59:56.362Z,4.82
2023-02-03T03:02:22.898Z,4.81
2023-02-03T03:04:51.077Z,4.82
2023-02-03T03:07:24.012Z,4.80
2023-02-03T03:10:00.256Z,4.80
2023-02-03T03:12:31.233Z,4.79
2023-02-03T03:15:21.785Z,4.78
2023-02-03T03:17:58.822Z,4.75
2023-02-03T03:20:27.911Z,4.74
2023-02-03T03:23:09.323Z,4.76
2023-02-03T03:25:46.992Z,4.76
2023-02-03T03:28:22.384Z,4.78
2023-02-03T03:30:49.160Z,4.73
2023-02-03T03:33:18.201Z,4.74
2023-02-03T03:35:59.022Z,4.74
2023-02-03T03:38:33.440Z,4.75
2023-02-03T03:41:07.201Z,4.76
2023-02-03T03:43:38.789Z,4.80
2023-02-03T03:46:20.930Z,4.79
2023-02-03T03:49:02.972Z,4.83
2023-02-03T03:51:37.826Z,4.78
2023-02-03T03:54:09.711Z,4.79
2023-02-03T03:56:46.733Z,4.79
2023-02-03T03:59:16.437Z,4.82
2023-02-03T04:01:43.121Z,4.83
2023-02-03T04:04:11.098Z,4.82
2023-02-03T04:06:39.206Z,4.83
2023-02-03T04:09:06.712Z,4.84
2023-02-03T04:11:33.466Z,4.82
2023-02-03T04:13:59.869Z,4.84
2023-02-03T04:16:26.301Z,4.83
2023-02-03T04:18:52.734Z,4.83
2023-02-03T04:21:19.181Z,4.82
2023-02-03T04:23:45.506Z,4.83
2023-02-03T04:26:11.887Z,4.83
2023-02-03T04:28:38.242Z,4.79
2023-02-03T04:31:04.838Z,4.77
2023-02-03T04:33:31.413Z,4.71
2023-02-03T04:35:58.138Z,4.70
2023-02-03T04:38:24.559Z,4.68
2023-02-03T04:40:51.225Z,4.68
2023-02-03T04:43:17.599Z,4.68
2023-02-03T04:45:44.098Z,4.65
2023-02-03T04:48:10.899Z,4.66
2023-02-03T04:50:38.329Z,4.61
2023-02-03T04:53:04.668Z,4.59
2023-02-03T04:55:31.177Z,4.57
2023-02-03T04:57:59.253Z,4.58
2023-02-03T05:00:27.116Z,4.58
2023-02-03T05:02:53.607Z,4.58
2023-02-03T05:05:20.233Z,4.59
2023-02-03T05:07:46.704Z,4.60
2023-02-03T05:10:13.326Z,4.58
2023-02-03T05:12:39.780Z,4.60
2023-02-03T05:15:06.577Z,4.56
2023-02-03T05:17:33.149Z,4.51
2023-02-03T05:19:59.750Z,4.46
2023-02-03T05:22:26.281Z,4.44
2023-02-03T05:24:52.895Z,4.44
2023-02-03T05:27:20.083Z,4.40
2023-02-03T05:29:46.498Z,4.40
2023-02-03T05:32:13.166Z,4.44
2023-02-03T05:34:42.007Z,4.53
2023-02-03T05:37:08.751Z,4.48
2023-02-03T05:39:35.136Z,4.47
2023-02-03T05:42:01.583Z,4.51
2023-02-03T05:44:28.734Z,4.49
2023-02-03T05:46:57.508Z,4.48
2023-02-03T05:49:24.262Z,4.50
2023-02-03T05:51:52.360Z,4.47
2023-02-03T05:54:19.148Z,4.45
2023-02-03T05:56:45.556Z,4.40
2023-02-03T05:59:12.111Z,4.43
2023-02-03T06:01:38.975Z,4.39
2023-02-03T06:04:06.073Z,4.36
2023-02-03T06:06:32.739Z,4.35
2023-02-03T06:09:06.428Z,4.36
2023-02-03T06:11:33.526Z,4.37
2023-02-03T06:14:00.531Z,4.34
2023-02-03T06:16:29.035Z,4.39
2023-02-03T06:18:56.781Z,4.40
2023-02-03T06:21:23.309Z,4.40
2023-02-03T06:23:50.006Z,4.43
2023-02-03T06:26:16.574Z,4.45
2023-02-03T06:28:42.927Z,4.45
2023-02-03T06:31:09.501Z,4.46
2023-02-03T06:33:36.131Z,4.46
2023-02-03T06:36:02.656Z,4.44
2023-02-03T06:38:29.058Z,4.50
2023-02-03T06:40:55.503Z,4.54
2023-02-03T06:43:21.945Z,4.50
2023-02-03T06:45:48.436Z,4.52
2023-02-03T06:48:15.478Z,4.49
2023-02-03T06:50:43.134Z,4.47
2023-02-03T06:53:09.640Z,4.45
2023-02-03T06:55:36.280Z,4.42
2023-02-03T06:58:02.894Z,4.39
2023-02-03T07:00:29.671Z,4.34
2023-02-03T07:02:58.276Z,4.32
2023-02-03T07:05:26.448Z,4.33
2023-02-03T07:07:52.925Z,4.36
2023-02-03T07:10:19.643Z,4.38
2023-02-03T07:12:45.988Z,4.42
2023-02-03T07:15:13.029Z,4.44
2023-02-03T07:17:39.542Z,4.45
2023-02-03T07:20:06.287Z,4.48
2023-02-03T07:22:32.668Z,4.51
2023-02-03T07:24:59.295Z,4.50
2023-02-03T07:27:27.077Z,4.52
2023-02-03T07:29:53.795Z,4.52
2023-02-03T07:32:20.204Z,4.53
2023-02-03T07:34:46.616Z,4.58
2023-02-03T07:37:13.073Z,4.59
2023-02-03T07:39:39.669Z,4.65
2023-02-03T07:42:06.138Z,4.67
2023-02-03T07:44:32.568Z,4.72
2023-02-03T07:46:58.883Z,4.70
2023-02-03T07:49:25.337Z,4.71
2023-02-03T07:51:51.961Z,4.73
2023-02-03T07:54:18.631Z,4.71
2023-02-03T07:56:44.980Z,4.67
2023-02-03T07:59:11.429Z,4.66
2023-02-03T08:01:37.908Z,4.65
2023-02-03T08:04:04.614Z,4.62
2023-02-03T08:06:31.383Z,4.67
2023-02-03T08:09:00.049Z,4.69
2023-02-03T08:11:28.931Z,4.74
2023-02-03T08:13:55.683Z,4.75
2023-02-03T08:16:22.253Z,4.74
2023-02-03T08:18:48.704Z,4.68
2023-02-03T08:21:15.055Z,4.80
2023-02-03T08:23:41.425Z,4.80
2023-02-03T08:26:07.821Z,4.80
2023-02-03T08:28:34.855Z,4.82
2023-02-03T08:31:01.393Z,4.88
2023-02-03T08:33:32.636Z,4.91
2023-02-03T08:35:59.337Z,4.90
2023-02-03T08:38:26.007Z,4.92
2023-02-03T08:40:52.516Z,4.90
2023-02-03T08:43:19.475Z,4.90
2023-02-03T08:45:48.894Z,4.92
2023-02-03T08:48:15.615Z,4.91
2023-02-03T08:50:45.920Z,4.90
2023-02-03T08:53:14.760Z,4.92
2023-02-03T08:55:41.670Z,4.95
2023-02-03T08:58:08.130Z,5.01
2023-02-03T09:00:35.254Z,5.02
2023-02-03T09:03:02.729Z,5.01
2023-02-03T09:05:30.839Z,5.02
2023-02-03T09:07:57.903Z,4.98
2023-02-03T09:10:24.372Z,5.02
2023-02-03T09:12:50.876Z,5.03
2023-02-03T09:15:17.461Z,5.01
2023-02-03T09:17:44.500Z,5.12
2023-02-03T09:20:11.600Z,5.14
2023-02-03T09:22:38.394Z,5.17
2023-02-03T09:25:06.391Z,5.22
2023-02-03T09:27:33.272Z,5.26
2023-02-03T09:30:00.834Z,5.33
2023-02-03T09:32:27.367Z,5.46
2023-02-03T09:34:53.813Z,5.51
2023-02-03T09:37:20.772Z,5.67
2023-02-03T09:39:47.921Z,5.71
2023-02-03T09:42:34.511Z,5.68
2023-02-03T09:45:26.083Z,5.71
2023-02-03T09:47:54.704Z,5.69
2023-02-03T09:50:24.942Z,5.77
2023-02-03T09:52:52.530Z,5.84
2023-02-03T09:55:44.094Z,5.96
2023-02-03T09:58:21.636Z,5.98
2023-02-03T10:00:53.159Z,6.21
2023-02-03T10:03:32.759Z,6.05
2023-02-03T10:06:30.982Z,6.12
2023-02-03T10:09:16.146Z,6.21
2023-02-03T10:12:08.847Z,6.01
2023-02-03T10:14:50.754Z,5.91
2023-02-03T10:17:27.861Z,6.12
2023-02-03T10:20:02.352Z,6.32
2023-02-03T10:22:32.460Z,6.29
2023-02-03T10:25:41.673Z,6.82
2023-02-03T10:28:19.867Z,6.71
2023-02-03T10:30:50.472Z,6.79
2023-02-03T10:33:18.888Z,6.62
2023-02-03T10:36:01.626Z,6.33
2023-02-03T10:38:37.134Z,6.46
2023-02-03T10:41:04.327Z,6.22
2023-02-03T10:43:32.747Z,6.39
2023-02-03T10:45:59.457Z,6.44
2023-02-03T10:48:26.329Z,6.41
2023-02-03T10:50:54.959Z,6.31
2023-02-03T10:53:43.477Z,6.35
2023-02-03T10:56:16.207Z,6.39
2023-02-03T10:58:52.534Z,6.52
2023-02-03T11:01:22.087Z,6.59
2023-02-03T11:03:58.802Z,6.49
2023-02-03T11:06:25.804Z,6.50
2023-02-03T11:08:52.789Z,6.65
2023-02-03T11:11:25.390Z,6.69
2023-02-03T11:14:04.975Z,6.67
2023-02-03T11:16:34.586Z,6.83
2023-02-03T11:19:16.053Z,7.01
2023-02-03T11:21:47.819Z,7.01
2023-02-03T11:24:31.525Z,6.62
2023-02-03T11:27:05.993Z,6.65
2023-02-03T11:30:06.908Z,6.64
2023-02-03T11:32:37.773Z,6.59
2023-02-03T11:35:13.270Z,6.43
2023-02-03T11:37:42.273Z,6.51
2023-02-03T11:40:08.984Z,6.36
2023-02-03T11:42:38.134Z,6.41
2023-02-03T11:45:27.878Z,6.43
2023-02-03T11:48:16.204Z,6.28
2023-02-03T11:50:57.520Z,6.42
2023-02-03T11:53:56.968Z,6.07
2023-02-03T11:57:09.312Z,6.29
2023-02-03T11:59:46.222Z,6.38
2023-02-03T12:02:30.631Z,6.39
2023-02-03T12:05:29.285Z,6.42
2023-02-03T12:08:17.572Z,6.45
2023-02-03T12:11:32.385Z,6.38
2023-02-03T12:14:17.114Z,6.30
2023-02-03T12:16:52.456Z,6.35
2023-02-03T12:19:32.090Z,6.40
2023-02-03T12:22:26.734Z,6.39
2023-02-03T12:25:32.294Z,6.32
2023-02-03T12:28:33.303Z,6.41
2023-02-03T12:31:29.415Z,6.41
2023-02-03T12:34:14.730Z,6.35
2023-02-03T12:36:49.486Z,6.43
2023-02-03T12:39:21.695Z,6.35
2023-02-03T12:42:14.959Z,6.29
2023-02-03T12:45:05.871Z,6.23
2023-02-03T12:47:50.996Z,6.23
2023-02-03T12:50:20.323Z,6.24
2023-02-03T12:53:05.851Z,6.18
2023-02-03T12:55:53.232Z,6.21
2023-02-03T12:58:35.516Z,6.17
2023-02-03T13:01:36.631Z,6.12
2023-02-03T13:04:13.079Z,6.07
2023-02-03T13:07:06.446Z,6.08
2023-02-03T13:09:45.805Z,6.05
2023-02-03T13:12:23.809Z,6.04
2023-02-03T13:14:57.062Z,6.06
2023-02-03T13:17:37.954Z,6.10
2023-02-03T13:20:19.127Z,6.12
2023-02-03T13:22:46.462Z,6.16
2023-02-03T13:25:35.367Z,6.25
2023-02-03T13:28:11.197Z,6.23
2023-02-03T13:30:56.852Z,6.29
2023-02-03T13:33:44.660Z,6.32
2023-02-03T13:36:34.263Z,6.30
2023-02-03T13:39:13.214Z,6.31
2023-02-03T13:42:02.805Z,6.33
2023-02-03T13:44:29.757Z,6.32
2023-02-03T13:46:59.163Z,6.43
2023-02-03T13:49:37.053Z,6.42
2023-02-03T13:52:03.735Z,6.46
2023-02-03T13:54:43.468Z,6.44
2023-02-03T13:57:32.255Z,6.43
2023-02-03T13:59:58.716Z,6.52
2023-02-03T14:02:25.059Z,6.53
2023-02-03T14:04:57.151Z,6.50
2023-02-03T14:07:37.081Z,6.52
2023-02-03T14:10:20.654Z,6.59
2023-02-03T14:12:49.809Z,6.57
2023-02-03T14:15:25.288Z,6.55
2023-02-03T14:18:03.803Z,6.59
2023-02-03T14:20:30.228Z,6.59
2023-02-03T14:23:05.775Z,6.62
2023-02-03T14:25:39.203Z,6.63
2023-02-03T14:28:10.291Z,6.59
2023-02-03T14:31:07.914Z,6.60
2023-02-03T14:33:58.443Z,6.57
2023-02-03T14:36:27.871Z,6.55
2023-02-03T14:38:56.256Z,6.62
2023-02-03T14:41:37.047Z,6.63
2023-02-03T14:44:30.968Z,6.63
2023-02-03T14:47:08.111Z,6.60
2023-02-03T14:50:16.599Z,6.63
2023-02-03T14:53:07.000Z,6.67
2023-02-03T14:55:42.401Z,6.65
2023-02-03T14:58:25.865Z,6.65
2023-02-03T15:00:52.300Z,6.61
2023-02-03T15:03:21.062Z,6.62
2023-02-03T15:05:50.963Z,6.62
2023-02-03T15:08:35.066Z,6.60
2023-02-03T15:11:25.441Z,6.61
2023-02-03T15:13:51.868Z,6.58
2023-02-03T15:16:23.462Z,6.57
2023-02-03T15:19:00.862Z,6.57
2023-02-03T15:21:27.466Z,6.53
2023-02-03T15:23:54.383Z,6.54
2023-02-03T15:26:24.125Z,6.55
2023-02-03T15:29:20.729Z,6.50
2023-02-03T15:31:50.974Z,6.51
2023-02-03T15:34:29.947Z,6.47
2023-02-03T15:37:01.631Z,6.48
2023-02-03T15:39:38.978Z,6.50
2023-02-03T15:42:12.063Z,6.47
2023-02-03T15:44:46.255Z,6.45
2023-02-03T15:47:42.996Z,6.43
2023-02-03T15:50:29.085Z,6.43
2023-02-03T15:52:59.414Z,6.42
2023-02-03T15:55:39.228Z,6.41
2023-02-03T15:58:06.273Z,6.37
2023-02-03T16:00:40.351Z,6.37
2023-02-03T16:03:18.954Z,6.39
2023-02-03T16:05:46.708Z,6.35
2023-02-03T16:08:36.790Z,6.33
2023-02-03T16:11:21.457Z,6.35
2023-02-03T16:13:48.131Z,6.33
2023-02-03T16:16:29.616Z,6.30
2023-02-03T16:19:09.502Z,6.28
2023-02-03T16:21:48.179Z,6.24
2023-02-03T16:24:36.277Z,6.21
2023-02-03T16:27:27.816Z,6.18
2023-02-03T16:30:15.307Z,6.16
2023-02-03T16:32:41.764Z,6.19
2023-02-03T16:35:10.287Z,6.14
2023-02-03T16:37:44.973Z,6.13
2023-02-03T16:40:14.314Z,6.13
2023-02-03T16:42:40.721Z,6.14
2023-02-03T16:45:17.504Z,6.11
2023-02-03T16:47:45.762Z,6.13
2023-02-03T16:50:36.472Z,6.11
2023-02-03T16:53:05.241Z,6.09
2023-02-03T16:55:31.893Z,6.10
2023-02-03T16:57:59.530Z,6.08
2023-02-03T17:00:26.209Z,6.04
2023-02-03T17:02:53.094Z,6.06
2023-02-03T17:05:21.869Z,6.04
2023-02-03T17:07:48.398Z,6.02
2023-02-03T17:10:17.179Z,6.06
2023-02-03T17:12:43.614Z,6.02
2023-02-03T17:15:10.147Z,6.01
2023-02-03T17:17:37.044Z,6.02
2023-02-03T17:20:04.263Z,6.00
2023-02-03T17:22:30.771Z,6.04
2023-02-03T17:24:57.409Z,6.05
2023-02-03T17:27:23.881Z,6.01
2023-02-03T17:29:50.585Z,5.99
2023-02-03T17:32:17.235Z,6.05
2023-02-03T17:34:44.077Z,6.00
2023-02-03T17:37:10.458Z,6.01
2023-02-03T17:55:43.465Z,6.00
2023-02-03T17:58:09.870Z,6.03
2023-02-03T18:00:39.281Z,6.00
2023-02-03T18:03:06.650Z,6.03
2023-02-03T18:05:33.043Z,6.06
2023-02-03T18:08:03.352Z,6.05
2023-02-03T18:10:35.996Z,6.03
2023-02-03T18:13:02.811Z,6.01
2023-02-03T18:15:29.378Z,5.99
2023-02-03T18:17:55.753Z,5.97
2023-02-03T18:20:22.488Z,5.95
2023-02-03T18:22:48.927Z,5.99
2023-02-03T18:25:15.455Z,6.00
2023-02-03T18:27:42.124Z,6.04
2023-02-03T18:30:09.558Z,5.98
2023-02-03T18:32:36.003Z,5.94
2023-02-03T18:35:02.806Z,5.98
2023-02-03T18:37:29.786Z,5.94
2023-02-03T18:39:56.219Z,5.94
2023-02-03T18:42:22.579Z,5.95
2023-02-03T18:44:48.975Z,5.92
2023-02-03T18:47:15.313Z,5.90
2023-02-03T18:49:45.120Z,5.90
2023-02-03T18:52:11.862Z,5.90
2023-02-03T18:54:38.273Z,5.91
2023-02-03T18:57:06.155Z,5.89
2023-02-03T18:59:32.652Z,5.86
2023-02-03T19:01:59.550Z,5.82
2023-02-03T19:04:26.100Z,5.80
2023-02-03T19:06:53.842Z,5.77
2023-02-03T19:09:20.247Z,5.76
2023-02-03T19:11:46.691Z,5.71
2023-02-03T19:14:13.968Z,5.71
2023-02-03T19:16:40.730Z,5.73
2023-02-03T19:19:07.214Z,5.73
2023-02-03T19:21:33.947Z,5.73
2023-02-03T19:24:05.212Z,5.75
2023-02-03T19:26:31.872Z,5.73
2023-02-03T19:28:59.092Z,5.74
2023-02-03T19:31:25.496Z,5.71
2023-02-03T19:33:52.088Z,5.73
2023-02-03T19:36:19.892Z,5.74
2023-02-03T19:38:46.297Z,5.74
2023-02-03T19:41:13.818Z,5.74
2023-02-03T19:43:40.330Z,5.75
2023-02-03T19:46:08.084Z,5.76
2023-02-03T19:48:38.653Z,5.78
2023-02-03T19:51:05.878Z,5.78
2023-02-03T19:53:32.336Z,5.78
2023-02-03T19:56:02.277Z,5.76
2023-02-03T19:58:30.128Z,5.75
2023-02-03T20:00:56.871Z,5.76
2023-02-03T20:03:23.845Z,5.81
2023-02-03T20:05:53.859Z,5.83
2023-02-03T20:08:20.482Z,5.85
2023-02-03T20:10:47.026Z,5.88
2023-02-03T20:13:14.255Z,5.88
2023-02-03T20:15:41.587Z,5.86
2023-02-03T20:18:09.147Z,5.85
2023-02-03T20:20:37.496Z,5.83
2023-02-03T20:23:03.929Z,5.80
2023-02-03T20:25:30.539Z,5.79
2023-02-03T20:27:57.798Z,5.77
2023-02-03T20:30:24.248Z,5.75
2023-02-03T20:32:50.637Z,5.76
2023-02-03T20:35:19.490Z,5.77
2023-02-03T20:37:46.187Z,5.76
2023-02-03T20:40:18.355Z,5.82
2023-02-03T20:42:44.999Z,5.79
2023-02-03T20:45:15.905Z,5.82
2023-02-03T20:47:43.025Z,5.85
2023-02-03T20:50:41.462Z,5.87
2023-02-03T20:53:13.810Z,5.88
2023-02-03T20:55:40.880Z,5.87
2023-02-03T20:58:28.439Z,5.86
2023-02-03T21:00:54.940Z,5.89
2023-02-03T21:03:21.447Z,5.91
2023-02-03T21:05:47.963Z,5.89
2023-02-03T21:08:16.257Z,5.92
2023-02-03T21:10:44.951Z,5.92
2023-02-03T21:13:25.248Z,5.92
2023-02-03T21:16:02.402Z,5.90
2023-02-03T21:18:47.120Z,5.90
2023-02-03T21:21:19.943Z,5.90
2023-02-03T21:23:47.670Z,5.92
2023-02-03T21:26:43.336Z,5.87
2023-02-03T21:29:25.168Z,5.88
2023-02-03T21:31:52.442Z,5.93
2023-02-03T21:34:26.274Z,5.92
2023-02-03T21:36:52.672Z,5.91
2023-02-03T21:39:21.998Z,5.98
2023-02-03T21:41:48.400Z,5.95
2023-02-03T21:44:33.567Z,5.96
2023-02-03T21:47:21.477Z,5.92
2023-02-03T21:49:47.774Z,5.91
2023-02-03T21:52:14.316Z,5.91
2023-02-03T21:54:43.447Z,5.90
2023-02-03T21:57:13.959Z,5.94
2023-02-03T21:59:40.831Z,5.92
2023-02-03T22:02:46.553Z,5.89
2023-02-03T22:05:16.414Z,5.92
2023-02-03T22:07:43.039Z,5.91
2023-02-03T22:10:09.696Z,5.93
2023-02-03T22:12:36.045Z,5.94
2023-02-03T22:15:02.719Z,5.96
2023-02-03T22:17:29.104Z,5.98
2023-02-03T22:19:55.445Z,6.05
2023-02-03T22:22:21.849Z,6.01
2023-02-03T22:24:48.529Z,6.01
2023-02-03T22:27:14.884Z,6.09
2023-02-03T22:29:41.278Z,6.14
2023-02-03T22:32:07.619Z,6.19
2023-02-03T22:34:34.064Z,6.20
2023-02-03T22:37:00.474Z,6.28
2023-02-03T22:39:26.975Z,6.30
2023-02-03T22:41:53.425Z,6.37
2023-02-03T22:44:19.833Z,6.42
2023-02-03T22:46:46.267Z,6.48
2023-02-03T22:49:12.661Z,6.50
2023-02-03T22:51:39.048Z,6.47
2023-02-03T22:54:05.645Z,6.49
2023-02-03T22:56:32.031Z,6.48
2023-02-03T22:58:58.519Z,6.48
2023-02-03T23:01:24.976Z,6.58
2023-02-03T23:03:51.341Z,6.62
2023-02-03T23:06:17.987Z,6.60
2023-02-03T23:08:44.353Z,6.60
2023-02-03T23:11:11.066Z,6.70
2023-02-03T23:13:37.463Z,6.71
2023-02-03T23:16:05.560Z,6.85
2023-02-03T23:18:32.000Z,6.91
2023-02-03T23:21:01.190Z,6.94
2023-02-03T23:23:27.619Z,6.91
2023-02-03T23:25:54.082Z,6.91
2023-02-03T23:28:20.541Z,6.97
2023-02-03T23:30:47.189Z,7.06
2023-02-03T23:33:13.911Z,7.07
2023-02-03T23:35:40.574Z,7.10
2023-02-03T23:38:06.920Z,7.14
2023-02-03T23:40:33.556Z,7.10
2023-02-03T23:43:00.114Z,7.05
2023-02-03T23:45:26.563Z,6.99
2023-02-03T23:47:53.071Z,7.01
2023-02-03T23:50:19.469Z,7.02
2023-02-03T23:52:49.213Z,6.99
2023-02-03T23:55:18.948Z,7.05
2023-02-03T23:57:45.628Z,6.98
